sensor_id;sensor_type;location;lat;lon;timestamp;pressure;altitude;pressure_sealevel;temperature
71640;BMP280;60912;48.968;10.124;2023-12-29T00:01:41;96576.84;;;9.62
71640;BMP280;60912;48.968;10.124;2023-12-29T00:04:17;96581.25;;;9.65
71640;BMP280;60912;48.968;10.124;2023-12-29T00:06:42;96566.44;;;9.68
71640;BMP280;60912;48.968;10.124;2023-12-29T00:09:14;96566.34;;;9.73
71640;BMP280;60912;48.968;10.124;2023-12-29T00:11:50;96574.00;;;9.75
71640;BMP280;60912;48.968;10.124;2023-12-29T00:14:28;96555.44;;;9.68
71640;BMP280;60912;48.968;10.124;2023-12-29T00:16:59;96566.34;;;9.73
71640;BMP280;60912;48.968;10.124;2023-12-29T00:19:29;96574.88;;;9.91
71640;BMP280;60912;48.968;10.124;2023-12-29T00:22:18;96558.78;;;9.95
71640;BMP280;60912;48.968;10.124;2023-12-29T00:24:48;96554.59;;;10.01
71640;BMP280;60912;48.968;10.124;2023-12-29T00:27:17;96557.56;;;10.03
71640;BMP280;60912;48.968;10.124;2023-12-29T00:29:43;96554.91;;;9.90
71640;BMP280;60912;48.968;10.124;2023-12-29T00:32:17;96560.25;;;9.75
71640;BMP280;60912;48.968;10.124;2023-12-29T00:35:05;96545.22;;;9.76
71640;BMP280;60912;48.968;10.124;2023-12-29T00:37:36;96554.13;;;9.82
71640;BMP280;60912;48.968;10.124;2023-12-29T00:40:02;96561.41;;;9.79
71640;BMP280;60912;48.968;10.124;2023-12-29T00:42:30;96559.09;;;9.91
71640;BMP280;60912;48.968;10.124;2023-12-29T00:45:08;96557.84;;;9.92
71640;BMP280;60912;48.968;10.124;2023-12-29T00:47:49;96552.06;;;10.03
71640;BMP280;60912;48.968;10.124;2023-12-29T00:50:26;96564.56;;;10.04
71640;BMP280;60912;48.968;10.124;2023-12-29T00:52:57;96549.09;;;10.01
71640;BMP280;60912;48.968;10.124;2023-12-29T00:55:30;96554.28;;;10.05
71640;BMP280;60912;48.968;10.124;2023-12-29T00:57:58;96553.75;;;10.06
71640;BMP280;60912;48.968;10.124;2023-12-29T01:00:31;96546.56;;;10.03
71640;BMP280;60912;48.968;10.124;2023-12-29T01:03:06;96548.19;;;9.99
71640;BMP280;60912;48.968;10.124;2023-12-29T01:05:43;96549.09;;;10.01
71640;BMP280;60912;48.968;10.124;2023-12-29T01:08:22;96548.50;;;10.16
71640;BMP280;60912;48.968;10.124;2023-12-29T01:11:11;96537.41;;;10.08
71640;BMP280;60912;48.968;10.124;2023-12-29T01:13:52;96539.09;;;10.11
71640;BMP280;60912;48.968;10.124;2023-12-29T01:16:24;96532.91;;;10.18
71640;BMP280;60912;48.968;10.124;2023-12-29T01:18:52;96541.59;;;10.30
71640;BMP280;60912;48.968;10.124;2023-12-29T01:21:17;96544.75;;;10.34
71640;BMP280;60912;48.968;10.124;2023-12-29T01:23:43;96544.97;;;10.36
71640;BMP280;60912;48.968;10.124;2023-12-29T01:26:08;96537.91;;;10.28
71640;BMP280;60912;48.968;10.124;2023-12-29T01:28:36;96551.69;;;10.28
71640;BMP280;60912;48.968;10.124;2023-12-29T01:31:01;96549.50;;;10.34
71640;BMP280;60912;48.968;10.124;2023-12-29T01:33:29;96555.25;;;10.36
71640;BMP280;60912;48.968;10.124;2023-12-29T01:36:05;96558.34;;;10.32
71640;BMP280;60912;48.968;10.124;2023-12-29T01:38:39;96547.31;;;10.32
71640;BMP280;60912;48.968;10.124;2023-12-29T01:41:15;96551.47;;;10.26
71640;BMP280;60912;48.968;10.124;2023-12-29T01:46:39;96553.47;;;10.25
71640;BMP280;60912;48.968;10.124;2023-12-29T01:49:16;96546.34;;;10.22
71640;BMP280;60912;48.968;10.124;2023-12-29T01:51:54;96538.41;;;10.18
71640;BMP280;60912;48.968;10.124;2023-12-29T01:54:25;96543.06;;;10.24
71640;BMP280;60912;48.968;10.124;2023-12-29T01:57:13;96536.63;;;10.29
71640;BMP280;60912;48.968;10.124;2023-12-29T01:59:42;96541.94;;;10.27
71640;BMP280;60912;48.968;10.124;2023-12-29T02:02:15;96539.81;;;10.33
71640;BMP280;60912;48.968;10.124;2023-12-29T02:04:56;96529.31;;;10.31
71640;BMP280;60912;48.968;10.124;2023-12-29T02:07:28;96529.69;;;10.35
71640;BMP280;60912;48.968;10.124;2023-12-29T02:09:58;96528.81;;;10.40
71640;BMP280;60912;48.968;10.124;2023-12-29T02:12:33;96526.22;;;10.35
71640;BMP280;60912;48.968;10.124;2023-12-29T02:15:20;96523.16;;;10.46
71640;BMP280;60912;48.968;10.124;2023-12-29T02:17:55;96509.31;;;10.38
71640;BMP280;60912;48.968;10.124;2023-12-29T02:20:33;96518.16;;;10.37
71640;BMP280;60912;48.968;10.124;2023-12-29T02:23:27;96521.47;;;10.43
71640;BMP280;60912;48.968;10.124;2023-12-29T02:25:55;96525.16;;;10.45
71640;BMP280;60912;48.968;10.124;2023-12-29T02:31:24;96516.72;;;10.51
71640;BMP280;60912;48.968;10.124;2023-12-29T02:33:53;96517.84;;;10.48
71640;BMP280;60912;48.968;10.124;2023-12-29T02:36:20;96522.56;;;10.40
71640;BMP280;60912;48.968;10.124;2023-12-29T02:38:51;96521.09;;;10.39
71640;BMP280;60912;48.968;10.124;2023-12-29T02:41:17;96523.28;;;10.33
71640;BMP280;60912;48.968;10.124;2023-12-29T02:43:45;96515.00;;;10.33
71640;BMP280;60912;48.968;10.124;2023-12-29T02:46:16;96516.47;;;10.34
71640;BMP280;60912;48.968;10.124;2023-12-29T02:48:45;96510.06;;;10.39
71640;BMP280;60912;48.968;10.124;2023-12-29T02:51:27;96516.06;;;10.30
71640;BMP280;60912;48.968;10.124;2023-12-29T02:53:53;96500.09;;;10.28
71640;BMP280;60912;48.968;10.124;2023-12-29T02:56:23;96506.88;;;10.27
71640;BMP280;60912;48.968;10.124;2023-12-29T03:01:58;96492.22;;;10.25
71640;BMP280;60912;48.968;10.124;2023-12-29T03:04:47;96490.31;;;10.19
71640;BMP280;60912;48.968;10.124;2023-12-29T03:07:15;96489.72;;;10.13
71640;BMP280;60912;48.968;10.124;2023-12-29T03:09:40;96484.28;;;10.29
71640;BMP280;60912;48.968;10.124;2023-12-29T03:12:16;96476.38;;;10.25
71640;BMP280;60912;48.968;10.124;2023-12-29T03:14:45;96470.31;;;10.27
71640;BMP280;60912;48.968;10.124;2023-12-29T03:17:15;96480.59;;;10.26
71640;BMP280;60912;48.968;10.124;2023-12-29T03:20:04;96480.66;;;10.34
71640;BMP280;60912;48.968;10.124;2023-12-29T03:22:42;96480.59;;;10.26
71640;BMP280;60912;48.968;10.124;2023-12-29T03:25:19;96487.75;;;10.21
71640;BMP280;60912;48.968;10.124;2023-12-29T03:27:46;96483.16;;;10.16
71640;BMP280;60912;48.968;10.124;2023-12-29T03:30:18;96466.91;;;10.05
71640;BMP280;60912;48.968;10.124;2023-12-29T03:32:52;96471.78;;;10.20
71640;BMP280;60912;48.968;10.124;2023-12-29T03:35:32;96474.69;;;10.14
71640;BMP280;60912;48.968;10.124;2023-12-29T03:38:05;96464.41;;;10.15
71640;BMP280;60912;48.968;10.124;2023-12-29T03:40:39;96458.94;;;10.23
71640;BMP280;60912;48.968;10.124;2023-12-29T03:43:25;96455.47;;;10.22
71640;BMP280;60912;48.968;10.124;2023-12-29T03:46:05;96468.84;;;10.26
71640;BMP280;60912;48.968;10.124;2023-12-29T03:48:54;96471.81;;;10.28
71640;BMP280;60912;48.968;10.124;2023-12-29T03:51:52;96476.91;;;10.16
71640;BMP280;60912;48.968;10.124;2023-12-29T03:54:23;96468.81;;;10.18
71640;BMP280;60912;48.968;10.124;2023-12-29T03:57:17;96471.56;;;10.18
71640;BMP280;60912;48.968;10.124;2023-12-29T03:59:58;96484.22;;;10.13
71640;BMP280;60912;48.968;10.124;2023-12-29T04:02:39;96469.66;;;10.05
71640;BMP280;60912;48.968;10.124;2023-12-29T04:05:24;96466.50;;;10.01
71640;BMP280;60912;48.968;10.124;2023-12-29T04:07:58;96472.00;;;10.01
71640;BMP280;60912;48.968;10.124;2023-12-29T04:10:38;96459.38;;;9.98
71640;BMP280;60912;48.968;10.124;2023-12-29T04:13:09;96454.63;;;10.06
71640;BMP280;60912;48.968;10.124;2023-12-29T04:15:44;96448.91;;;10.04
71640;BMP280;60912;48.968;10.124;2023-12-29T04:18:21;96454.72;;;9.93
71640;BMP280;60912;48.968;10.124;2023-12-29T04:20:54;96433.22;;;9.92
71640;BMP280;60912;48.968;10.124;2023-12-29T04:23:20;96434.84;;;9.87
71640;BMP280;60912;48.968;10.124;2023-12-29T04:29:37;96442.94;;;9.85
71640;BMP280;60912;48.968;10.124;2023-12-29T04:32:09;96446.25;;;9.91
71640;BMP280;60912;48.968;10.124;2023-12-29T04:37:28;96447.72;;;9.92
71640;BMP280;60912;48.968;10.124;2023-12-29T04:40:04;96443.00;;;10.00
71640;BMP280;60912;48.968;10.124;2023-12-29T04:42:33;96447.28;;;10.09
71640;BMP280;60912;48.968;10.124;2023-12-29T04:45:00;96457.25;;;10.19
71640;BMP280;60912;48.968;10.124;2023-12-29T04:47:49;96454.66;;;10.14
71640;BMP280;60912;48.968;10.124;2023-12-29T04:50:20;96458.13;;;10.07
71640;BMP280;60912;48.968;10.124;2023-12-29T04:52:57;96447.97;;;10.02
71640;BMP280;60912;48.968;10.124;2023-12-29T04:55:36;96454.81;;;10.08
71640;BMP280;60912;48.968;10.124;2023-12-29T04:58:15;96455.03;;;10.10
71640;BMP280;60912;48.968;10.124;2023-12-29T05:00:49;96466.28;;;10.20
71640;BMP280;60912;48.968;10.124;2023-12-29T05:03:27;96473.50;;;10.02
71640;BMP280;60912;48.968;10.124;2023-12-29T05:05:58;96470.19;;;10.04
71640;BMP280;60912;48.968;10.124;2023-12-29T05:08:41;96464.25;;;9.92
71640;BMP280;60912;48.968;10.124;2023-12-29T05:11:28;96466.63;;;9.88
71640;BMP280;60912;48.968;10.124;2023-12-29T05:13:56;96469.09;;;9.99
71640;BMP280;60912;48.968;10.124;2023-12-29T05:16:35;96464.47;;;9.94
71640;BMP280;60912;48.968;10.124;2023-12-29T05:19:04;96458.22;;;9.94
71640;BMP280;60912;48.968;10.124;2023-12-29T05:21:32;96452.59;;;9.99
71640;BMP280;60912;48.968;10.124;2023-12-29T05:24:28;96453.34;;;10.07
71640;BMP280;60912;48.968;10.124;2023-12-29T05:27:02;96441.16;;;9.95
71640;BMP280;60912;48.968;10.124;2023-12-29T05:29:48;96442.94;;;9.85
71640;BMP280;60912;48.968;10.124;2023-12-29T05:32:13;96461.09;;;9.88
71640;BMP280;60912;48.968;10.124;2023-12-29T05:34:39;96464.56;;;9.81
71640;BMP280;60912;48.968;10.124;2023-12-29T05:37:04;96463.47;;;9.84
71640;BMP280;60912;48.968;10.124;2023-12-29T05:39:29;96467.88;;;9.87
71640;BMP280;60912;48.968;10.124;2023-12-29T05:41:55;96477.63;;;9.88
71640;BMP280;60912;48.968;10.124;2023-12-29T05:44:20;96474.88;;;9.88
71640;BMP280;60912;48.968;10.124;2023-12-29T05:46:46;96478.00;;;9.92
71640;BMP280;60912;48.968;10.124;2023-12-29T05:49:12;96469.75;;;9.92
71640;BMP280;60912;48.968;10.124;2023-12-29T05:51:37;96471.75;;;9.92
71640;BMP280;60912;48.968;10.124;2023-12-29T05:54:03;96468.38;;;9.99
71640;BMP280;60912;48.968;10.124;2023-12-29T05:56:28;96477.56;;;10.09
71640;BMP280;60912;48.968;10.124;2023-12-29T05:58:54;96475.16;;;9.98
71640;BMP280;60912;48.968;10.124;2023-12-29T06:01:19;96473.13;;;9.98
71640;BMP280;60912;48.968;10.124;2023-12-29T06:03:45;96477.38;;;9.99
71640;BMP280;60912;48.968;10.124;2023-12-29T06:06:10;96483.44;;;10.05
71640;BMP280;60912;48.968;10.124;2023-12-29T06:08:35;96491.50;;;10.03
71640;BMP280;60912;48.968;10.124;2023-12-29T06:11:01;96492.75;;;10.02
71640;BMP280;60912;48.968;10.124;2023-12-29T06:13:27;96484.50;;;10.02
71640;BMP280;60912;48.968;10.124;2023-12-29T06:15:53;96474.22;;;10.03
71640;BMP280;60912;48.968;10.124;2023-12-29T06:18:18;96479.00;;;10.02
71640;BMP280;60912;48.968;10.124;2023-12-29T06:20:43;96486.16;;;9.98
71640;BMP280;60912;48.968;10.124;2023-12-29T06:23:09;96481.47;;;9.85
71640;BMP280;60912;48.968;10.124;2023-12-29T06:25:34;96489.13;;;9.79
71640;BMP280;60912;48.968;10.124;2023-12-29T06:27:59;96476.94;;;9.74
71640;BMP280;60912;48.968;10.124;2023-12-29T06:30:25;96483.81;;;9.81
71640;BMP280;60912;48.968;10.124;2023-12-29T06:32:50;96476.63;;;9.78
71640;BMP280;60912;48.968;10.124;2023-12-29T06:35:17;96471.53;;;9.82
71640;BMP280;60912;48.968;10.124;2023-12-29T06:37:42;96471.44;;;9.74
71640;BMP280;60912;48.968;10.124;2023-12-29T06:40:08;96475.84;;;9.70
71640;BMP280;60912;48.968;10.124;2023-12-29T06:42:33;96474.84;;;9.60
71640;BMP280;60912;48.968;10.124;2023-12-29T06:44:59;96468.25;;;9.63
71640;BMP280;60912;48.968;10.124;2023-12-29T06:47:24;96474.78;;;9.73
71640;BMP280;60912;48.968;10.124;2023-12-29T06:49:50;96471.53;;;9.82
71640;BMP280;60912;48.968;10.124;2023-12-29T06:52:16;96474.81;;;9.81
71640;BMP280;60912;48.968;10.124;2023-12-29T06:54:41;96469.28;;;9.73
71640;BMP280;60912;48.968;10.124;2023-12-29T06:57:07;96463.94;;;9.75
71640;BMP280;60912;48.968;10.124;2023-12-29T06:59:32;96465.94;;;9.74
71640;BMP280;60912;48.968;10.124;2023-12-29T07:01:57;96462.94;;;9.65
71640;BMP280;60912;48.968;10.124;2023-12-29T07:04:23;96465.50;;;9.63
71640;BMP280;60912;48.968;10.124;2023-12-29T07:06:48;96461.75;;;9.53
71640;BMP280;60912;48.968;10.124;2023-12-29T07:09:13;96462.03;;;9.42
71640;BMP280;60912;48.968;10.124;2023-12-29T07:11:39;96465.31;;;9.40
71640;BMP280;60912;48.968;10.124;2023-12-29T07:14:04;96454.72;;;9.23
71640;BMP280;60912;48.968;10.124;2023-12-29T07:16:29;96461.50;;;9.22
71640;BMP280;60912;48.968;10.124;2023-12-29T07:18:55;96467.88;;;9.17
71640;BMP280;60912;48.968;10.124;2023-12-29T07:21:20;96467.97;;;9.12
71640;BMP280;60912;48.968;10.124;2023-12-29T07:23:55;96460.88;;;9.16
71640;BMP280;60912;48.968;10.124;2023-12-29T07:26:20;96467.00;;;9.22
71640;BMP280;60912;48.968;10.124;2023-12-29T07:28:46;96461.50;;;9.22
71640;BMP280;60912;48.968;10.124;2023-12-29T07:31:13;96466.75;;;9.33
71640;BMP280;60912;48.968;10.124;2023-12-29T07:33:41;96461.38;;;9.49
71640;BMP280;60912;48.968;10.124;2023-12-29T07:36:12;96466.66;;;9.47
71640;BMP280;60912;48.968;10.124;2023-12-29T07:38:38;96464.31;;;9.51
71640;BMP280;60912;48.968;10.124;2023-12-29T07:41:03;96470.75;;;9.53
71640;BMP280;60912;48.968;10.124;2023-12-29T07:43:29;96472.50;;;9.64
71640;BMP280;60912;48.968;10.124;2023-12-29T07:45:54;96481.94;;;9.76
71640;BMP280;60912;48.968;10.124;2023-12-29T07:48:20;96485.50;;;9.84
71640;BMP280;60912;48.968;10.124;2023-12-29T07:50:45;96485.38;;;9.69
71640;BMP280;60912;48.968;10.124;2023-12-29T07:53:10;96480.28;;;9.73
71640;BMP280;60912;48.968;10.124;2023-12-29T07:55:39;96487.44;;;9.76
71640;BMP280;60912;48.968;10.124;2023-12-29T07:58:07;96479.88;;;9.69
71640;BMP280;60912;48.968;10.124;2023-12-29T08:00:35;96481.41;;;9.77
71640;BMP280;60912;48.968;10.124;2023-12-29T08:03:00;96479.09;;;9.89
71640;BMP280;60912;48.968;10.124;2023-12-29T08:05:25;96471.22;;;9.93
71640;BMP280;60912;48.968;10.124;2023-12-29T08:07:51;96469.31;;;9.81
71640;BMP280;60912;48.968;10.124;2023-12-29T08:10:16;96477.84;;;9.90
71640;BMP280;60912;48.968;10.124;2023-12-29T08:12:42;96479.19;;;10.04
71640;BMP280;60912;48.968;10.124;2023-12-29T08:15:07;96482.94;;;10.14
71640;BMP280;60912;48.968;10.124;2023-12-29T08:17:33;96475.28;;;10.20
71640;BMP280;60912;48.968;10.124;2023-12-29T08:19:58;96479.72;;;10.24
71640;BMP280;60912;48.968;10.124;2023-12-29T08:22:24;96468.81;;;10.18
71640;BMP280;60912;48.968;10.124;2023-12-29T08:24:52;96479.75;;;10.31
71640;BMP280;60912;48.968;10.124;2023-12-29T08:27:27;96478.50;;;10.40
71640;BMP280;60912;48.968;10.124;2023-12-29T08:29:54;96475.25;;;10.49
71640;BMP280;60912;48.968;10.124;2023-12-29T08:32:20;96479.69;;;10.59
71640;BMP280;60912;48.968;10.124;2023-12-29T08:34:46;96477.47;;;10.58
71640;BMP280;60912;48.968;10.124;2023-12-29T08:37:11;96474.16;;;10.59
71640;BMP280;60912;48.968;10.124;2023-12-29T08:39:37;96488.47;;;10.58
71640;BMP280;60912;48.968;10.124;2023-12-29T08:42:04;96484.44;;;10.59
71640;BMP280;60912;48.968;10.124;2023-12-29T08:44:31;96486.66;;;10.60
71640;BMP280;60912;48.968;10.124;2023-12-29T08:46:56;96486.47;;;10.58
71640;BMP280;60912;48.968;10.124;2023-12-29T08:49:21;96481.13;;;10.53
71640;BMP280;60912;48.968;10.124;2023-12-29T08:51:47;96487.88;;;10.44
71640;BMP280;60912;48.968;10.124;2023-12-29T08:54:13;96480.38;;;10.52
71640;BMP280;60912;48.968;10.124;2023-12-29T08:56:42;96492.59;;;10.72
71640;BMP280;60912;48.968;10.124;2023-12-29T08:59:07;96484.88;;;10.71
71640;BMP280;60912;48.968;10.124;2023-12-29T09:01:32;96492.94;;;10.69
71640;BMP280;60912;48.968;10.124;2023-12-29T09:03:58;96479.56;;;10.73
71640;BMP280;60912;48.968;10.124;2023-12-29T09:06:24;96492.22;;;10.76
71640;BMP280;60912;48.968;10.124;2023-12-29T09:08:49;96487.97;;;10.67
71640;BMP280;60912;48.968;10.124;2023-12-29T09:11:14;96490.91;;;10.61
71640;BMP280;60912;48.968;10.124;2023-12-29T09:13:41;96500.28;;;10.66
71640;BMP280;60912;48.968;10.124;2023-12-29T09:16:07;96489.28;;;10.66
71640;BMP280;60912;48.968;10.124;2023-12-29T09:18:32;96494.22;;;10.68
71640;BMP280;60912;48.968;10.124;2023-12-29T09:20:58;96485.81;;;10.73
71640;BMP280;60912;48.968;10.124;2023-12-29T09:24:37;96499.19;;;10.69
71640;BMP280;60912;48.968;10.124;2023-12-29T09:29:28;96507.69;;;10.79
71640;BMP280;60912;48.968;10.124;2023-12-29T09:32:03;96490.19;;;10.69
71640;BMP280;60912;48.968;10.124;2023-12-29T09:35:17;96491.66;;;10.62
71640;BMP280;60912;48.968;10.124;2023-12-29T09:40:35;96494.09;;;10.73
71640;BMP280;60912;48.968;10.124;2023-12-29T09:46:19;96513.03;;;10.84
71640;BMP280;60912;48.968;10.124;2023-12-29T09:48:57;96509.75;;;10.86
71640;BMP280;60912;48.968;10.124;2023-12-29T09:51:43;96503.88;;;10.89
71640;BMP280;60912;48.968;10.124;2023-12-29T09:57:50;96505.56;;;11.07
71640;BMP280;60912;48.968;10.124;2023-12-29T10:00:27;96503.94;;;11.20
71640;BMP280;60912;48.968;10.124;2023-12-29T10:03:18;96501.56;;;11.39
71640;BMP280;60912;48.968;10.124;2023-12-29T10:05:54;96501.38;;;11.52
71640;BMP280;60912;48.968;10.124;2023-12-29T10:08:25;96505.81;;;11.47
71640;BMP280;60912;48.968;10.124;2023-12-29T10:11:04;96499.34;;;11.30
71640;BMP280;60912;48.968;10.124;2023-12-29T10:13:45;96500.28;;;11.32
71640;BMP280;60912;48.968;10.124;2023-12-29T10:16:22;96506.03;;;11.49
71640;BMP280;60912;48.968;10.124;2023-12-29T10:25:48;96482.59;;;11.96
71640;BMP280;60912;48.968;10.124;2023-12-29T10:28:18;96489.22;;;12.16
71640;BMP280;60912;48.968;10.124;2023-12-29T10:30:52;96493.53;;;12.41
71640;BMP280;60912;48.968;10.124;2023-12-29T10:33:25;96480.56;;;12.12
71640;BMP280;60912;48.968;10.124;2023-12-29T10:36:05;96470.06;;;12.03
71640;BMP280;60912;48.968;10.124;2023-12-29T10:38:42;96487.38;;;12.11
71640;BMP280;60912;48.968;10.124;2023-12-29T10:41:35;96468.41;;;12.15
71640;BMP280;60912;48.968;10.124;2023-12-29T10:44:20;96467.28;;;12.03
71640;BMP280;60912;48.968;10.124;2023-12-29T10:46:52;96473.56;;;12.11
71640;BMP280;60912;48.968;10.124;2023-12-29T10:49:18;96478.69;;;12.14
71640;BMP280;60912;48.968;10.124;2023-12-29T10:51:50;96476.69;;;12.15
71640;BMP280;60912;48.968;10.124;2023-12-29T10:54:37;96460.84;;;12.23
71640;BMP280;60912;48.968;10.124;2023-12-29T10:57:03;96473.66;;;12.43
71640;BMP280;60912;48.968;10.124;2023-12-29T10:59:38;96461.41;;;12.14
71640;BMP280;60912;48.968;10.124;2023-12-29T11:02:06;96456.22;;;12.18
71640;BMP280;60912;48.968;10.124;2023-12-29T11:07:40;96447.59;;;12.61
71640;BMP280;60912;48.968;10.124;2023-12-29T11:10:14;96441.63;;;12.72
71640;BMP280;60912;48.968;10.124;2023-12-29T11:12:43;96444.28;;;12.63
71640;BMP280;60912;48.968;10.124;2023-12-29T12:09:24;96418.66;;;12.15
71640;BMP280;60912;48.968;10.124;2023-12-29T12:11:53;96414.72;;;12.33
71640;BMP280;60912;48.968;10.124;2023-12-29T12:14:44;96419.31;;;12.38
71640;BMP280;60912;48.968;10.124;2023-12-29T12:17:34;96419.75;;;12.19
71640;BMP280;60912;48.968;10.124;2023-12-29T12:20:07;96411.31;;;12.10
71640;BMP280;60912;48.968;10.124;2023-12-29T12:22:39;96411.63;;;12.29
71640;BMP280;60912;48.968;10.124;2023-12-29T12:25:18;96408.25;;;11.98
71640;BMP280;60912;48.968;10.124;2023-12-29T12:30:50;96399.38;;;12.47
71640;BMP280;60912;48.968;10.124;2023-12-29T12:36:19;96389.53;;;12.29
71640;BMP280;60912;48.968;10.124;2023-12-29T12:38:53;96385.72;;;12.17
71640;BMP280;60912;48.968;10.124;2023-12-29T12:44:12;96398.09;;;12.48
71640;BMP280;60912;48.968;10.124;2023-12-29T12:49:35;96387.13;;;12.90
71640;BMP280;60912;48.968;10.124;2023-12-29T12:52:07;96397.59;;;12.99
71640;BMP280;60912;48.968;10.124;2023-12-29T12:54:43;96394.06;;;12.99
71640;BMP280;60912;48.968;10.124;2023-12-29T12:57:18;96388.94;;;12.95
71640;BMP280;60912;48.968;10.124;2023-12-29T12:59:52;96392.78;;;13.00
71640;BMP280;60912;48.968;10.124;2023-12-29T13:02:18;96400.75;;;12.96
71640;BMP280;60912;48.968;10.124;2023-12-29T13:04:46;96392.25;;;12.69
71640;BMP280;60912;48.968;10.124;2023-12-29T13:07:27;96399.78;;;12.76
71640;BMP280;60912;48.968;10.124;2023-12-29T13:10:07;96417.13;;;13.01
71640;BMP280;60912;48.968;10.124;2023-12-29T13:12:38;96396.41;;;12.85
71640;BMP280;60912;48.968;10.124;2023-12-29T13:15:15;96413.09;;;12.95
71640;BMP280;60912;48.968;10.124;2023-12-29T13:17:50;96407.28;;;12.83
71640;BMP280;60912;48.968;10.124;2023-12-29T13:20:16;96414.75;;;12.65
71640;BMP280;60912;48.968;10.124;2023-12-29T13:23:08;96409.28;;;12.58
71640;BMP280;60912;48.968;10.124;2023-12-29T13:25:37;96398.88;;;12.73
71640;BMP280;60912;48.968;10.124;2023-12-29T13:28:14;96398.03;;;12.63
71640;BMP280;60912;48.968;10.124;2023-12-29T13:30:43;96402.13;;;12.79
71640;BMP280;60912;48.968;10.124;2023-12-29T13:39:57;96387.09;;;12.65
71640;BMP280;60912;48.968;10.124;2023-12-29T13:42:13;96382.66;;;12.70
71640;BMP280;60912;48.968;10.124;2023-12-29T13:44:47;96395.75;;;12.94
71640;BMP280;60912;48.968;10.124;2023-12-29T13:47:23;96382.63;;;12.77
71640;BMP280;60912;48.968;10.124;2023-12-29T13:49:58;96378.47;;;12.61
71640;BMP280;60912;48.968;10.124;2023-12-29T13:52:38;96384.78;;;12.54
71640;BMP280;60912;48.968;10.124;2023-12-29T13:55:30;96375.22;;;12.15
71640;BMP280;60912;48.968;10.124;2023-12-29T13:57:55;96370.22;;;12.21
71640;BMP280;60912;48.968;10.124;2023-12-29T14:00:30;96390.28;;;12.22
71640;BMP280;60912;48.968;10.124;2023-12-29T14:03:32;96379.25;;;12.22
71640;BMP280;60912;48.968;10.124;2023-12-29T14:06:03;96387.09;;;12.33
71640;BMP280;60912;48.968;10.124;2023-12-29T14:08:53;96385.63;;;12.32
71640;BMP280;60912;48.968;10.124;2023-12-29T14:11:33;96385.59;;;12.00
71640;BMP280;60912;48.968;10.124;2023-12-29T14:14:33;96400.69;;;11.91
71640;BMP280;60912;48.968;10.124;2023-12-29T14:17:06;96387.09;;;11.78
71640;BMP280;60912;48.968;10.124;2023-12-29T14:19:39;96395.59;;;11.87
71640;BMP280;60912;48.968;10.124;2023-12-29T14:22:20;96388.91;;;11.98
71640;BMP280;60912;48.968;10.124;2023-12-29T14:25:17;96401.00;;;12.03
71640;BMP280;60912;48.968;10.124;2023-12-29T14:27:53;96405.81;;;12.02
71640;BMP280;60912;48.968;10.124;2023-12-29T14:30:24;96399.03;;;11.95
71640;BMP280;60912;48.968;10.124;2023-12-29T14:33:01;96397.75;;;11.89
71640;BMP280;60912;48.968;10.124;2023-12-29T14:35:33;96384.88;;;11.91
71640;BMP280;60912;48.968;10.124;2023-12-29T14:37:59;96399.41;;;12.00
71640;BMP280;60912;48.968;10.124;2023-12-29T14:40:39;96416.50;;;12.06
71640;BMP280;60912;48.968;10.124;2023-12-29T14:43:07;96405.34;;;11.81
71640;BMP280;60912;48.968;10.124;2023-12-29T14:45:40;96402.94;;;11.77
71640;BMP280;60912;48.968;10.124;2023-12-29T14:48:16;96401.47;;;11.69
71640;BMP280;60912;48.968;10.124;2023-12-29T14:50:53;96391.00;;;11.60
71640;BMP280;60912;48.968;10.124;2023-12-29T14:53:29;96400.75;;;11.53
71640;BMP280;60912;48.968;10.124;2023-12-29T14:56:01;96394.91;;;11.49
71640;BMP280;60912;48.968;10.124;2023-12-29T14:58:29;96394.16;;;11.48
71640;BMP280;60912;48.968;10.124;2023-12-29T15:01:07;96378.50;;;11.51
71640;BMP280;60912;48.968;10.124;2023-12-29T15:03:46;96378.34;;;11.49
71640;BMP280;60912;48.968;10.124;2023-12-29T15:06:12;96384.03;;;11.51
71640;BMP280;60912;48.968;10.124;2023-12-29T15:08:49;96386.97;;;11.45
71640;BMP280;60912;48.968;10.124;2023-12-29T15:11:20;96395.78;;;11.51
71640;BMP280;60912;48.968;10.124;2023-12-29T15:14:12;96390.47;;;11.38
71640;BMP280;60912;48.968;10.124;2023-12-29T15:16:45;96393.44;;;11.48
71640;BMP280;60912;48.968;10.124;2023-12-29T15:19:27;96392.16;;;11.49
71640;BMP280;60912;48.968;10.124;2023-12-29T15:22:13;96390.88;;;11.50
71640;BMP280;60912;48.968;10.124;2023-12-29T15:24:45;96386.97;;;11.53
71640;BMP280;60912;48.968;10.124;2023-12-29T15:27:24;96401.50;;;11.61
71640;BMP280;60912;48.968;10.124;2023-12-29T15:29:58;96390.09;;;11.57
71640;BMP280;60912;48.968;10.124;2023-12-29T15:32:38;96385.88;;;11.56
71640;BMP280;60912;48.968;10.124;2023-12-29T15:35:06;96401.31;;;11.59
71640;BMP280;60912;48.968;10.124;2023-12-29T15:37:32;96395.06;;;11.59
71640;BMP280;60912;48.968;10.124;2023-12-29T15:40:13;96401.16;;;11.57
71640;BMP280;60912;48.968;10.124;2023-12-29T15:42:45;96402.06;;;11.37
71640;BMP280;60912;48.968;10.124;2023-12-29T15:45:18;96407.03;;;11.23
71640;BMP280;60912;48.968;10.124;2023-12-29T15:47:48;96426.88;;;11.22
71640;BMP280;60912;48.968;10.124;2023-12-29T15:50:17;96421.75;;;11.11
71640;BMP280;60912;48.968;10.124;2023-12-29T15:52:50;96417.69;;;11.04
71640;BMP280;60912;48.968;10.124;2023-12-29T15:55:17;96414.72;;;11.02
71640;BMP280;60912;48.968;10.124;2023-12-29T15:57:54;96407.00;;;11.00
71640;BMP280;60912;48.968;10.124;2023-12-29T16:00:21;96412.88;;;10.89
71640;BMP280;60912;48.968;10.124;2023-12-29T16:02:57;96420.41;;;10.81
71640;BMP280;60912;48.968;10.124;2023-12-29T16:05:30;96415.22;;;10.70
71640;BMP280;60912;48.968;10.124;2023-12-29T16:07:56;96415.44;;;10.72
71640;BMP280;60912;48.968;10.124;2023-12-29T16:10:30;96401.78;;;10.59
71640;BMP280;60912;48.968;10.124;2023-12-29T16:13:12;96403.63;;;10.56
71640;BMP280;60912;48.968;10.124;2023-12-29T16:15:38;96389.84;;;10.56
71640;BMP280;60912;48.968;10.124;2023-12-29T16:18:09;96384.88;;;10.55
71640;BMP280;60912;48.968;10.124;2023-12-29T16:21:07;96391.84;;;10.48